Terminal Aerodrome Forecast
Issued by NWS Flagstaff, AZ

Home | Current Version | Previous Version | Text Only | Print | Product List | Glossary On
Versions: 1 2 3 4 5 6 7 8 9 10 11 12 13 14 15 16 17 18
602
FTUS45 KFGZ 230528
TAFFLG
TAF
KFLG 230528Z 2306/2406 VRB05KT P6SM SCT250
     FM231800 21007KT P6SM VCTS SCT060CB BKN100
      TEMPO 2320/2324 VRB10G20KT 4SM TSRA BKN060CB
     FM240200 04008KT P6SM SCT080 BKN250=

USA.gov is the U.S. government's official web portal to all federal, state and local government web resources and services.